• Join FlightAware (Why Join?)
  • Login
  • US Flag 
12:38PM EST


 

Airport Tracker/Info


-or-


 

Live Flight TrackerFlight Track Log ✈ AAY829 ✈ 21-Jul-2014 ✈ KGSP - KPIE

Flight Track Log - Related Links

Times and Time Zones

All times are in EDT time to prevent confusion due to time zone crossing. See the AAY829 flight status page for this flight to view local times or setup timezone preferences in your user account.

Time Position Orientation Groundspeed Altitude Reporting Facility
EDT Latitude Longitude Course Direction KTS MPH feet Rate Location/Type
02:40PM 34.8858 -82.1550 180° South 252 290 3,100  Level Atlanta Center
02:41PM 34.8214 -82.1589 183° South 280 322 5,700 2,700 Climbing Atlanta Center
02:42PM 34.7442 -82.1681 186° South 280 322 8,600 2,760 Climbing Atlanta Center
02:43PM 34.6506 -82.1803 186° South 298 343 11,300 2,340 Climbing Atlanta Center
02:44PM 34.5547 -82.1900 185° South 322 371 13,300 2,100 Climbing Atlanta Center
02:45PM 34.2790 -82.2632 180° South  Level Estimated
02:45PM 34.4567 -82.1947 182° South 342 394 15,500  Level Atlanta Center
02:51PM 33.8608 -82.2511 184° South 390 449 23,600 1,440 Climbing FlightAware ADS-B (KCDN)
02:52PM 33.7338 -82.2629 184° South 390 449 25,300 1,260 Climbing FlightAware ADS-B (KCDN)
02:53PM 33.5833 -82.2758 184° South 425 489 26,900 1,140 Climbing Atlanta Center
02:54PM 33.4625 -82.2883 185° South 425 489 28,100 1,320 Climbing Atlanta Center
02:55PM 33.3372 -82.3008 185° South 425 489 29,600 960 Climbing Atlanta Center
02:56PM 33.2228 -82.3131 185° South 430 495 30,100 840 Climbing Atlanta Center
02:57PM 33.1017 -82.3228 184° South 441 507 31,300 1,200 Climbing Atlanta Center
02:58PM 32.9789 -82.3328 184° South 446 513 32,600 1,200 Climbing Atlanta Center
02:59PM 32.8619 -82.3450 185° South 435 501 33,700 1,080 Climbing Atlanta Center
03:00PM 32.7433 -82.3544 184° South 435 501 34,800 720 Climbing Atlanta Center
03:03PM 32.4850 -82.3778 184° South 425 489 36,100 360 Climbing Jacksonville Center
03:04PM 32.3556 -82.3883 184° South 425 489 36,100 -60 Level Jacksonville Center
03:05PM 32.2367 -82.3989 184° South 425 489 36,000 -60 Descending Jacksonville Center
03:06PM 32.1217 -82.4094 184° South 419 482 36,000  Level Jacksonville Center
03:07PM 32.0028 -82.4197 184° South 424 488 36,000  Level Jacksonville Center
03:08PM 31.8817 -82.4278 183° South 424 488 36,100  Climbing Jacksonville Center
03:09PM 31.7628 -82.4406 185° South 429 494 36,100  Level Jacksonville Center
03:10PM 31.6458 -82.4508 184° South 429 494 36,100 -60 Level Jacksonville Center
03:11PM 31.5269 -82.4636 185° South 429 494 36,000  Descending Jacksonville Center
03:12PM 31.4081 -82.4714 183° South 424 488 36,100  Climbing Jacksonville Center
03:18PM 30.6970 -82.5359 184° South 427 491 36,100  Level FlightAware ADS-B (KMCO)
03:19PM 30.5426 -82.5309 160° South 437 503 36,100  Level FlightAware ADS-B (KMCO)
03:19PM 30.5112 -82.5133 147° Southeast 442 509 36,100 -300 Level FlightAware ADS-B (KMCO)
03:21PM 30.3178 -82.4098 177° South 427 491 35,500 -480 Descending FlightAware ADS-B (KMCO)
03:22PM 30.2390 -82.4042 176° South 443 510 35,000 -1,080 Descending FlightAware ADS-B (KMCO)
03:23PM 30.1171 -82.3954 177° South 451 519 33,800 -1,140 Descending FlightAware ADS-B (KMCO)
03:23PM 30.0347 -82.3895 177° South 446 513 33,100 -1,260 Descending FlightAware ADS-B (KMCO)
03:24PM 29.9566 -82.3842 177° South 445 512 32,100 -1,680 Descending FlightAware ADS-B (KMCO)
03:25PM 29.8642 -82.3776 177° South 444 511 30,900 -1,800 Descending FlightAware ADS-B (KMCO)
03:25PM 29.7851 -82.3722 177° South 439 505 29,800 -1,800 Descending FlightAware ADS-B (KMCO)
03:26PM 29.7060 -82.3665 177° South 433 498 28,500 -1,860 Descending FlightAware ADS-B (KMCO)
03:27PM 29.5932 -82.3586 177° South 429 494 26,900 -1,560 Descending FlightAware ADS-B (KMCO)
03:28PM 29.5093 -82.3502 173° South 423 487 26,000 -660 Descending FlightAware ADS-B (KMCO)
03:28PM 29.4229 -82.3387 174° South 423 487 26,000 -960 Level FlightAware ADS-B (KMCO)
03:29PM 29.3148 -82.3257 174° South 414 476 24,500 -2,100 Descending FlightAware ADS-B (KMCO)
03:30PM 29.2559 -82.3187 174° South 404 465 23,000 -3,180 Descending FlightAware ADS-B (KMCO)
03:32PM 29.0284 -82.2916 174° South 360 414 15,900 -2,580 Descending FlightAware ADS-B (KMCO)
03:33PM 28.8951 -82.2759 174° South 318 366 13,800 -1,140 Descending FlightAware ADS-B (KMCO)
03:35PM 28.7858 -82.2629 174° South 308 354 12,900 -660 Descending FlightAware ADS-B (KMCO)
03:35PM 28.7406 -82.2581 174° South 309 356 12,600 -840 Descending Miami Center
03:36PM 28.6500 -82.3000 202° Southwest 330 380 11,500 -1,080 Descending Tampa TRACON
03:38PM 28.6000 -82.3833 236° Southwest 295 339 10,400 -780 Descending Tampa TRACON
03:38PM 28.5500 -82.4500 230° Southwest 281 323 10,000 -300 Descending Tampa TRACON
03:39PM 28.5167 -82.5000 233° Southwest 283 326 10,000  Level Tampa TRACON
03:40PM 28.4500 -82.5333 204° Southwest 293 337 10,000  Level Tampa TRACON
03:41PM 28.3667 -82.5833 208° Southwest 291 335 10,000 -540 Level Tampa TRACON
03:42PM 28.2833 -82.6167 199° South 291 335 8,900 -1,200 Descending Tampa TRACON
03:43PM 28.2167 -82.6500 204° Southwest 284 327 7,600 -1,440 Descending Tampa TRACON
03:44PM 28.1333 -82.7000 208° Southwest 273 314 5,900 -1,680 Descending Tampa TRACON
03:45PM 28.0833 -82.7333 210° Southwest 270 311 4,300 -1,680 Descending Tampa TRACON
03:46PM 28.0167 -82.7500 192° South 271 312 2,800 -900 Descending Tampa TRACON
03:47PM 27.9333 -82.7500 180° South 251 289 2,600 -300 Descending Tampa TRACON
03:48PM 27.8667 -82.7333 168° South 213 245 2,200 -600 Descending Tampa TRACON
03:49PM 27.8333 -82.7000 139° Southeast 178 205 1,500 -780 Descending Tampa TRACON
03:50PM 27.8833 -82.6833 16° North 139 160 600 -840 Descending Tampa TRACON
03:53PM 27.9000 -82.6833 53° Northeast  Level FlightAware Approximate